createdAt,value
2023-02-24T00:00:49.740Z,99.99
2023-02-24T00:01:49.739Z,99.99
2023-02-24T00:02:49.818Z,99.99
2023-02-24T00:03:49.767Z,99.99
2023-02-24T00:04:49.717Z,99.99
2023-02-24T00:05:49.689Z,99.99
2023-02-24T00:06:49.676Z,99.99
2023-02-24T00:07:49.670Z,99.99
2023-02-24T00:08:49.658Z,99.99
2023-02-24T00:09:49.643Z,99.99
2023-02-24T00:10:49.643Z,99.99
2023-02-24T00:11:49.629Z,99.99
2023-02-24T00:12:49.633Z,99.99
2023-02-24T00:13:49.606Z,99.99
2023-02-24T00:14:49.595Z,99.99
2023-02-24T00:15:49.582Z,99.99
2023-02-24T00:16:49.721Z,99.99
2023-02-24T00:17:49.555Z,99.99
2023-02-24T00:18:49.538Z,99.99
2023-02-24T00:19:49.547Z,99.99
2023-02-24T00:20:49.535Z,99.99
2023-02-24T00:21:49.521Z,99.99
2023-02-24T00:22:49.502Z,99.99
2023-02-24T00:23:49.494Z,99.99
2023-02-24T00:24:49.485Z,99.99
2023-02-24T00:25:49.487Z,99.99
2023-02-24T00:26:49.473Z,99.99
2023-02-24T00:27:49.464Z,99.99
2023-02-24T00:28:49.453Z,99.99
2023-02-24T00:29:49.435Z,99.99
2023-02-24T00:30:49.475Z,99.99
2023-02-24T00:31:49.607Z,99.99
2023-02-24T00:32:49.589Z,99.99
2023-02-24T00:33:49.384Z,99.99
2023-02-24T00:34:49.374Z,99.99
2023-02-24T00:35:49.368Z,99.99
2023-02-24T00:36:49.369Z,99.99
2023-02-24T00:37:49.362Z,99.99
2023-02-24T00:38:49.346Z,99.99
2023-02-24T00:39:49.326Z,99.99
2023-02-24T00:40:49.310Z,99.99
2023-02-24T00:41:49.306Z,99.99
2023-02-24T00:42:49.303Z,99.99
2023-02-24T00:43:49.295Z,99.99
2023-02-24T00:44:49.300Z,99.99
2023-02-24T00:45:49.268Z,99.87
2023-02-24T00:46:49.251Z,99.99
2023-02-24T00:47:49.274Z,99.99
2023-02-24T00:48:49.261Z,99.87
2023-02-24T00:49:49.230Z,99.66
2023-02-24T00:50:49.220Z,99.35
2023-02-24T00:51:49.234Z,99.56
2023-02-24T00:52:49.197Z,99.25
2023-02-24T00:53:49.196Z,99.25
2023-02-24T00:54:49.222Z,99.15
2023-02-24T00:55:49.167Z,99.15
2023-02-24T00:56:49.159Z,98.43
2023-02-24T00:57:49.144Z,98.11
2023-02-24T00:58:49.129Z,98.11
2023-02-24T00:59:49.131Z,97.60
2023-02-24T01:00:49.151Z,97.96
2023-02-24T01:01:49.145Z,97.08
2023-02-24T01:02:49.095Z,96.82
2023-02-24T01:03:49.101Z,96.61
2023-02-24T01:04:49.069Z,96.41
2023-02-24T01:05:49.076Z,96.20
2023-02-24T01:06:49.045Z,96.09
2023-02-24T01:07:49.039Z,95.99
2023-02-24T01:08:49.029Z,95.57
2023-02-24T01:09:49.005Z,96.20
2023-02-24T01:10:48.993Z,96.41
2023-02-24T01:11:49.090Z,96.09
2023-02-24T01:12:48.981Z,96.45
2023-02-24T01:13:48.980Z,96.51
2023-02-24T01:14:48.949Z,96.66
2023-02-24T01:15:48.957Z,96.61
2023-02-24T01:16:48.960Z,95.73
2023-02-24T01:17:48.940Z,95.62
2023-02-24T01:18:48.910Z,96.14
2023-02-24T01:19:48.905Z,95.73
2023-02-24T01:20:48.895Z,95.10
2023-02-24T01:21:48.882Z,93.97
2023-02-24T01:22:48.882Z,94.28
2023-02-24T01:23:48.854Z,94.59
2023-02-24T01:24:48.877Z,94.28
2023-02-24T01:25:48.844Z,94.79
2023-02-24T01:26:48.841Z,94.28
2023-02-24T01:27:48.831Z,94.28
2023-02-24T01:28:48.823Z,94.28
2023-02-24T01:29:48.787Z,93.97
2023-02-24T01:30:48.788Z,94.01
2023-02-24T01:31:50.083Z,94.43
2023-02-24T01:32:49.116Z,93.80
2023-02-24T01:33:48.754Z,94.22
2023-02-24T01:34:48.748Z,94.12
2023-02-24T01:35:48.738Z,94.43
2023-02-24T01:36:48.724Z,93.95
2023-02-24T01:37:48.727Z,94.43
2023-02-24T01:38:48.700Z,94.22
2023-02-24T01:39:48.699Z,94.16
2023-02-24T01:40:48.679Z,94.26
2023-02-24T01:41:48.664Z,94.68
2023-02-24T01:42:48.672Z,94.73
2023-02-24T01:43:48.661Z,95.46
2023-02-24T01:44:48.651Z,95.50
2023-02-24T01:45:48.628Z,94.89
2023-02-24T01:46:48.650Z,95.50
2023-02-24T01:47:48.615Z,94.68
2023-02-24T01:48:48.618Z,95.09
2023-02-24T01:49:48.623Z,95.09
2023-02-24T01:50:48.580Z,94.78
2023-02-24T01:51:48.568Z,94.78
2023-02-24T01:52:48.553Z,94.57
2023-02-24T01:53:48.548Z,94.37
2023-02-24T01:54:48.534Z,94.78
2023-02-24T01:55:48.542Z,94.26
2023-02-24T01:56:48.519Z,94.37
2023-02-24T01:57:48.504Z,95.29
2023-02-24T01:58:48.528Z,94.78
2023-02-24T01:59:48.483Z,94.06
2023-02-24T02:00:48.477Z,94.16
2023-02-24T02:01:48.597Z,94.06
2023-02-24T02:02:48.503Z,93.95
2023-02-24T02:03:48.448Z,94.51
2023-02-24T02:04:48.464Z,94.20
2023-02-24T02:05:48.516Z,94.51
2023-02-24T02:06:48.400Z,94.26
2023-02-24T02:07:48.411Z,94.47
2023-02-24T02:08:48.380Z,94.51
2023-02-24T02:09:48.388Z,94.41
2023-02-24T02:10:48.362Z,94.51
2023-02-24T02:11:48.346Z,94.62
2023-02-24T02:12:48.352Z,94.20
2023-02-24T02:13:48.375Z,94.82
2023-02-24T02:14:48.320Z,95.29
2023-02-24T02:15:48.388Z,95.03
2023-02-24T02:16:48.301Z,95.24
2023-02-24T02:17:48.296Z,95.96
2023-02-24T02:18:48.277Z,95.14
2023-02-24T02:19:48.269Z,95.03
2023-02-24T02:20:48.303Z,93.58
2023-02-24T02:21:48.253Z,92.13
2023-02-24T02:22:48.244Z,90.78
2023-02-24T02:23:48.221Z,89.86
2023-02-24T02:24:48.229Z,89.54
2023-02-24T02:25:48.209Z,89.86
2023-02-24T02:26:48.198Z,88.45
2023-02-24T02:27:48.202Z,89.07
2023-02-24T02:28:48.162Z,88.03
2023-02-24T02:29:48.150Z,88.71
2023-02-24T02:30:48.184Z,89.03
2023-02-24T02:31:48.216Z,88.86
2023-02-24T02:32:48.315Z,88.55
2023-02-24T02:33:48.159Z,88.13
2023-02-24T02:34:48.100Z,87.82
2023-02-24T02:35:48.095Z,88.09
2023-02-24T02:36:48.101Z,88.96
2023-02-24T02:37:48.086Z,88.45
2023-02-24T02:38:48.061Z,88.24
2023-02-24T02:39:48.065Z,89.07
2023-02-24T02:40:48.048Z,89.69
2023-02-24T02:41:48.033Z,89.48
2023-02-24T02:42:48.017Z,89.58
2023-02-24T02:43:48.019Z,89.62
2023-02-24T02:44:48.044Z,89.69
2023-02-24T02:45:48.142Z,89.79
2023-02-24T02:46:47.974Z,91.03
2023-02-24T02:47:47.963Z,90.41
2023-02-24T02:48:47.952Z,89.79
2023-02-24T02:49:47.963Z,90.31
2023-02-24T02:50:47.952Z,90.72
2023-02-24T02:51:47.925Z,91.24
2023-02-24T02:52:47.934Z,91.14
2023-02-24T02:53:47.899Z,91.14
2023-02-24T02:54:47.892Z,91.66
2023-02-24T02:55:47.893Z,91.39
2023-02-24T02:56:47.876Z,91.55
2023-02-24T02:57:47.873Z,91.91
2023-02-24T02:58:47.876Z,91.70
2023-02-24T02:59:47.845Z,92.43
2023-02-24T03:00:47.861Z,91.91
2023-02-24T03:01:47.848Z,92.01
2023-02-24T03:02:47.808Z,92.22
2023-02-24T03:03:47.810Z,91.80
2023-02-24T03:04:47.834Z,92.11
2023-02-24T03:05:47.776Z,91.80
2023-02-24T03:06:47.768Z,91.91
2023-02-24T03:07:47.793Z,91.80
2023-02-24T03:08:47.757Z,92.11
2023-02-24T03:09:47.733Z,91.70
2023-02-24T03:10:47.720Z,91.91
2023-02-24T03:11:47.710Z,91.91
2023-02-24T03:12:47.697Z,91.80
2023-02-24T03:13:47.705Z,92.11
2023-02-24T03:14:47.682Z,91.91
2023-02-24T03:15:47.671Z,91.80
2023-02-24T03:16:47.750Z,92.32
2023-02-24T03:17:47.648Z,91.91
2023-02-24T03:18:47.657Z,91.28
2023-02-24T03:19:47.639Z,91.70
2023-02-24T03:20:47.628Z,91.39
2023-02-24T03:21:47.612Z,91.70
2023-02-24T03:22:47.599Z,91.49
2023-02-24T03:23:47.582Z,91.39
2023-02-24T03:24:47.592Z,91.70
2023-02-24T03:25:47.569Z,92.01
2023-02-24T03:26:47.590Z,93.15
2023-02-24T03:27:47.540Z,92.63
2023-02-24T03:28:47.538Z,93.04
2023-02-24T03:29:47.522Z,92.01
2023-02-24T03:30:47.564Z,92.22
2023-02-24T03:31:47.639Z,92.22
2023-02-24T03:32:47.639Z,92.43
2023-02-24T03:33:47.485Z,91.80
2023-02-24T03:34:47.479Z,91.70
2023-02-24T03:35:47.481Z,91.18
2023-02-24T03:36:47.475Z,91.39
2023-02-24T03:37:47.470Z,90.77
2023-02-24T03:38:47.435Z,90.66
2023-02-24T03:39:47.422Z,90.87
2023-02-24T03:40:47.449Z,91.08
2023-02-24T03:41:47.402Z,90.66
2023-02-24T03:42:47.392Z,90.14
2023-02-24T03:43:47.392Z,89.52
2023-02-24T03:44:47.379Z,89.11
2023-02-24T03:45:47.403Z,89.83
2023-02-24T03:46:47.353Z,89.62
2023-02-24T03:47:47.352Z,89.21
2023-02-24T03:48:47.342Z,89.52
2023-02-24T03:49:47.322Z,89.62
2023-02-24T03:50:47.312Z,89.62
2023-02-24T03:51:47.291Z,89.62
2023-02-24T03:52:47.431Z,89.83
2023-02-24T03:53:47.285Z,89.83
2023-02-24T03:54:47.266Z,89.52
2023-02-24T03:55:47.255Z,90.04
2023-02-24T03:56:47.272Z,89.94
2023-02-24T03:57:47.243Z,91.12
2023-02-24T03:58:47.227Z,91.53
2023-02-24T03:59:47.225Z,90.70
2023-02-24T04:00:47.206Z,90.87
2023-02-24T04:01:47.208Z,90.29
2023-02-24T04:02:47.297Z,89.87
2023-02-24T04:03:47.169Z,90.39
2023-02-24T04:04:47.217Z,90.91
2023-02-24T04:05:47.152Z,89.62
2023-02-24T04:06:47.141Z,89.67
2023-02-24T04:07:47.133Z,90.08
2023-02-24T04:08:47.121Z,90.08
2023-02-24T04:09:47.124Z,90.70
2023-02-24T04:10:47.106Z,91.12
2023-02-24T04:11:47.099Z,89.98
2023-02-24T04:12:47.244Z,90.14
2023-02-24T04:13:47.089Z,90.35
2023-02-24T04:14:47.053Z,89.98
2023-02-24T04:15:47.081Z,89.98
2023-02-24T04:16:47.056Z,89.87
2023-02-24T04:17:47.019Z,90.19
2023-02-24T04:18:47.006Z,91.53
2023-02-24T04:19:47.025Z,90.91
2023-02-24T04:20:47.013Z,91.12
2023-02-24T04:21:46.983Z,91.28
2023-02-24T04:22:46.964Z,91.85
2023-02-24T04:23:46.956Z,91.53
2023-02-24T04:24:46.955Z,91.43
2023-02-24T04:25:46.949Z,92.05
2023-02-24T04:26:46.950Z,93.08
2023-02-24T04:27:46.926Z,92.16
2023-02-24T04:28:46.931Z,92.88
2023-02-24T04:29:46.900Z,92.88
2023-02-24T04:30:47.018Z,92.57
2023-02-24T04:31:47.135Z,92.98
2023-02-24T04:32:46.931Z,92.78
2023-02-24T04:33:46.859Z,92.98
2023-02-24T04:34:46.856Z,93.19
2023-02-24T04:35:46.837Z,92.98
2023-02-24T04:36:46.838Z,92.98
2023-02-24T04:37:46.822Z,93.29
2023-02-24T04:38:46.802Z,92.88
2023-02-24T04:39:46.790Z,92.88
2023-02-24T04:40:46.788Z,92.88
2023-02-24T04:41:46.791Z,93.19
2023-02-24T04:42:46.768Z,92.88
2023-02-24T04:43:46.766Z,93.08
2023-02-24T04:44:46.772Z,93.29
2023-02-24T04:45:46.732Z,92.74
2023-02-24T04:46:46.948Z,92.98
2023-02-24T04:47:46.723Z,93.08
2023-02-24T04:48:46.708Z,92.78
2023-02-24T04:49:46.707Z,92.68
2023-02-24T04:50:46.673Z,92.98
2023-02-24T04:51:46.665Z,92.98
2023-02-24T04:52:46.676Z,92.88
2023-02-24T04:53:46.646Z,92.05
2023-02-24T04:54:46.635Z,91.74
2023-02-24T04:55:46.635Z,92.05
2023-02-24T04:56:46.612Z,92.05
2023-02-24T04:57:46.599Z,93.19
2023-02-24T04:58:46.606Z,93.08
2023-02-24T04:59:46.596Z,92.98
2023-02-24T05:00:46.594Z,93.19
2023-02-24T05:01:46.591Z,93.08
2023-02-24T05:02:46.556Z,92.68
2023-02-24T05:03:46.611Z,92.88
2023-02-24T05:04:46.628Z,92.05
2023-02-24T05:05:46.523Z,92.88
2023-02-24T05:06:46.513Z,92.36
2023-02-24T05:07:46.520Z,92.47
2023-02-24T05:08:46.503Z,93.19
2023-02-24T05:09:46.507Z,93.08
2023-02-24T05:10:46.484Z,92.26
2023-02-24T05:11:46.481Z,92.05
2023-02-24T05:12:46.455Z,92.78
2023-02-24T05:13:46.458Z,92.78
2023-02-24T05:14:46.435Z,92.98
2023-02-24T05:15:46.462Z,92.78
2023-02-24T05:16:46.556Z,92.78
2023-02-24T05:17:46.405Z,92.05
2023-02-24T05:18:46.394Z,93.19
2023-02-24T05:19:46.397Z,92.36
2023-02-24T05:20:46.379Z,92.26
2023-02-24T05:21:46.362Z,91.85
2023-02-24T05:22:46.358Z,92.16
2023-02-24T05:23:46.345Z,92.61
2023-02-24T05:24:46.335Z,91.85
2023-02-24T05:25:46.357Z,91.53
2023-02-24T05:26:46.313Z,91.85
2023-02-24T05:27:46.306Z,91.43
2023-02-24T05:28:46.288Z,91.22
2023-02-24T05:29:46.272Z,91.68
2023-02-24T05:30:46.295Z,91.33
2023-02-24T05:31:46.358Z,91.43
2023-02-24T05:32:46.362Z,91.85
2023-02-24T05:33:46.240Z,91.64
2023-02-24T05:34:46.229Z,91.74
2023-02-24T05:35:46.216Z,91.74
2023-02-24T05:36:46.237Z,91.58
2023-02-24T05:37:46.192Z,91.53
2023-02-24T05:38:46.197Z,91.95
2023-02-24T05:39:46.174Z,91.85
2023-02-24T05:40:46.157Z,92.26
2023-02-24T05:41:46.143Z,92.47
2023-02-24T05:42:46.159Z,92.78
2023-02-24T05:43:46.138Z,91.95
2023-02-24T05:44:46.119Z,92.05
2023-02-24T05:45:46.112Z,91.43
2023-02-24T05:46:46.246Z,91.78
2023-02-24T05:47:46.086Z,92.05
2023-02-24T05:48:46.104Z,91.53
2023-02-24T05:49:46.064Z,91.74
2023-02-24T05:50:46.094Z,91.43
2023-02-24T05:51:46.039Z,91.33
2023-02-24T05:52:46.053Z,90.91
2023-02-24T05:53:46.031Z,91.02
2023-02-24T05:54:46.032Z,91.37
2023-02-24T05:55:46.023Z,91.22
2023-02-24T05:56:45.991Z,91.02
2023-02-24T05:57:45.979Z,91.12
2023-02-24T05:58:45.974Z,91.43
2023-02-24T05:59:45.981Z,91.74
2023-02-24T06:00:45.996Z,90.81
2023-02-24T06:01:45.983Z,90.39
2023-02-24T06:02:45.981Z,90.44
2023-02-24T06:03:45.924Z,90.91
2023-02-24T06:04:46.116Z,90.70
2023-02-24T06:05:45.900Z,90.91
2023-02-24T06:06:45.901Z,90.60
2023-02-24T06:07:45.880Z,91.33
2023-02-24T06:08:45.857Z,90.91
2023-02-24T06:09:45.852Z,90.91
2023-02-24T06:10:45.866Z,91.12
2023-02-24T06:11:45.895Z,90.70
2023-02-24T06:12:45.839Z,90.19
2023-02-24T06:13:45.809Z,89.87
2023-02-24T06:14:45.801Z,89.15
2023-02-24T06:15:45.821Z,89.15
2023-02-24T06:16:45.833Z,88.98
2023-02-24T06:17:45.764Z,89.46
2023-02-24T06:18:45.771Z,88.94
2023-02-24T06:19:45.743Z,89.56
2023-02-24T06:20:45.759Z,89.56
2023-02-24T06:21:45.747Z,89.15
2023-02-24T06:22:45.724Z,87.90
2023-02-24T06:23:45.715Z,87.70
2023-02-24T06:24:45.715Z,86.97
2023-02-24T06:25:45.688Z,86.25
2023-02-24T06:26:45.695Z,86.76
2023-02-24T06:27:45.671Z,87.59
2023-02-24T06:28:45.659Z,87.28
2023-02-24T06:29:45.655Z,87.38
2023-02-24T06:30:45.741Z,87.59
2023-02-24T06:31:45.718Z,86.76
2023-02-24T06:32:45.762Z,86.76
2023-02-24T06:33:45.610Z,87.80
2023-02-24T06:34:45.595Z,87.38
2023-02-24T06:35:45.580Z,86.76
2023-02-24T06:36:45.589Z,86.87
2023-02-24T06:37:45.576Z,86.52
2023-02-24T06:38:45.547Z,86.25
2023-02-24T06:39:45.544Z,86.55
2023-02-24T06:40:45.533Z,86.72
2023-02-24T06:41:45.517Z,87.45
2023-02-24T06:42:45.528Z,86.83
2023-02-24T06:43:45.501Z,86.10
2023-02-24T06:44:45.513Z,85.94
2023-02-24T06:45:45.579Z,85.38
2023-02-24T06:46:45.472Z,84.69
2023-02-24T06:47:45.479Z,83.97
2023-02-24T06:48:45.442Z,83.24
2023-02-24T06:49:45.444Z,83.20
2023-02-24T06:50:45.438Z,82.31
2023-02-24T06:51:45.409Z,82.62
2023-02-24T06:52:45.429Z,83.00
2023-02-24T06:53:45.406Z,82.58
2023-02-24T06:54:45.392Z,82.58
2023-02-24T06:55:45.378Z,82.79
2023-02-24T06:56:45.382Z,82.27
2023-02-24T06:57:45.362Z,81.34
2023-02-24T06:58:45.343Z,81.85
2023-02-24T06:59:45.329Z,81.54
2023-02-24T07:00:45.318Z,81.54
2023-02-24T07:01:45.570Z,82.06
2023-02-24T07:02:45.316Z,82.48
2023-02-24T07:03:45.512Z,82.79
2023-02-24T07:04:45.299Z,82.27
2023-02-24T07:05:45.273Z,82.68
2023-02-24T07:06:45.265Z,82.68
2023-02-24T07:07:45.254Z,83.00
2023-02-24T07:08:45.271Z,83.41
2023-02-24T07:09:45.328Z,82.68
2023-02-24T07:10:45.237Z,83.00
2023-02-24T07:11:46.810Z,84.65
2023-02-24T07:12:45.203Z,84.13
2023-02-24T07:13:45.195Z,84.55
2023-02-24T07:14:45.200Z,84.03
2023-02-24T07:15:45.169Z,84.65
2023-02-24T07:16:45.409Z,84.44
2023-02-24T07:17:47.089Z,84.55
2023-02-24T07:18:45.151Z,84.03
2023-02-24T07:19:45.147Z,85.38
2023-02-24T07:20:45.127Z,85.38
2023-02-24T07:21:45.102Z,85.69
2023-02-24T07:22:45.099Z,85.89
2023-02-24T07:23:45.094Z,86.00
2023-02-24T07:24:45.087Z,85.79
2023-02-24T07:25:45.077Z,85.86
2023-02-24T07:26:45.077Z,85.96
2023-02-24T07:27:45.048Z,85.58
2023-02-24T07:28:45.028Z,86.07
2023-02-24T07:29:45.015Z,87.10
2023-02-24T07:30:45.156Z,86.68
2023-02-24T07:31:45.342Z,86.27
2023-02-24T07:32:45.037Z,86.17
2023-02-24T07:33:44.979Z,86.58
2023-02-24T07:34:44.962Z,86.17
2023-02-24T07:35:44.970Z,86.79
2023-02-24T07:36:44.943Z,86.58
2023-02-24T07:37:44.934Z,86.17
2023-02-24T07:38:44.940Z,85.86
2023-02-24T07:39:44.911Z,85.65
2023-02-24T07:40:44.936Z,86.07
2023-02-24T07:41:44.905Z,86.44
2023-02-24T07:42:53.718Z,86.75
2023-02-24T07:43:52.411Z,86.33
2023-02-24T07:44:52.390Z,85.82
2023-02-24T07:45:44.847Z,86.54
2023-02-24T07:46:44.846Z,86.75
2023-02-24T07:47:44.844Z,86.33
2023-02-24T07:48:44.824Z,86.44
2023-02-24T07:49:44.805Z,86.33
2023-02-24T07:50:44.819Z,86.96
2023-02-24T07:51:44.781Z,87.27
2023-02-24T07:52:44.775Z,87.06
2023-02-24T07:53:44.786Z,86.65
2023-02-24T07:54:44.767Z,86.96
2023-02-24T07:55:44.749Z,87.27
2023-02-24T07:56:44.753Z,87.16
2023-02-24T07:57:44.723Z,87.30
2023-02-24T07:58:44.742Z,87.30
2023-02-24T07:59:44.695Z,87.62
2023-02-24T08:00:44.687Z,87.30
2023-02-24T08:01:44.681Z,87.20
2023-02-24T08:02:44.678Z,87.41
2023-02-24T08:03:44.682Z,86.68
2023-02-24T08:04:44.672Z,85.75
2023-02-24T08:05:44.718Z,85.96
2023-02-24T08:06:47.832Z,86.65
2023-02-24T08:07:44.622Z,86.47
2023-02-24T08:08:44.604Z,86.85
2023-02-24T08:09:44.712Z,86.13
2023-02-24T08:10:44.606Z,85.82
2023-02-24T08:11:44.577Z,85.88
2023-02-24T08:12:44.578Z,85.92
2023-02-24T08:13:44.544Z,85.57
2023-02-24T08:14:44.636Z,85.36
2023-02-24T08:15:44.578Z,85.68
2023-02-24T08:16:44.528Z,85.68
2023-02-24T08:17:44.500Z,85.36
2023-02-24T08:18:44.492Z,85.05
2023-02-24T08:19:44.482Z,84.91
2023-02-24T08:20:44.482Z,85.22
2023-02-24T08:21:44.457Z,84.19
2023-02-24T08:22:44.472Z,84.60
2023-02-24T08:23:44.439Z,83.98
2023-02-24T08:24:44.426Z,84.19
2023-02-24T08:25:44.433Z,84.08
2023-02-24T08:26:44.417Z,83.87
2023-02-24T08:27:44.395Z,84.39
2023-02-24T08:28:44.417Z,84.45
2023-02-24T08:29:44.371Z,85.28
2023-02-24T08:30:44.426Z,84.15
2023-02-24T08:31:44.504Z,84.77
2023-02-24T08:32:44.385Z,84.94
2023-02-24T08:33:44.342Z,83.39
2023-02-24T08:34:44.348Z,83.11
2023-02-24T08:35:44.705Z,82.29
2023-02-24T08:36:44.301Z,82.60
2023-02-24T08:37:44.314Z,82.50
2023-02-24T08:38:44.290Z,82.50
2023-02-24T08:39:44.278Z,82.90
2023-02-24T08:40:44.266Z,82.70
2023-02-24T08:41:44.256Z,82.25
2023-02-24T08:42:44.241Z,82.29
2023-02-24T08:43:44.242Z,82.45
2023-02-24T08:44:44.241Z,82.76
2023-02-24T08:45:44.210Z,82.76
2023-02-24T08:46:44.288Z,81.77
2023-02-24T08:47:44.201Z,82.15
2023-02-24T08:48:44.189Z,82.15
2023-02-24T08:49:46.130Z,81.84
2023-02-24T08:50:44.156Z,82.35
2023-02-24T08:51:44.169Z,81.01
2023-02-24T08:52:44.160Z,80.70
2023-02-24T08:53:44.138Z,81.73
2023-02-24T08:54:44.114Z,82.15
2023-02-24T08:55:44.116Z,82.45
2023-02-24T08:56:44.249Z,82.21
2023-02-24T08:57:44.097Z,81.18
2023-02-24T08:58:44.115Z,81.21
2023-02-24T08:59:44.074Z,79.87
2023-02-24T09:00:44.122Z,80.32
2023-02-24T09:01:45.314Z,79.08
2023-02-24T09:02:44.031Z,80.70
2023-02-24T09:03:44.029Z,80.39
2023-02-24T09:04:44.093Z,81.32
2023-02-24T09:05:43.998Z,81.52
2023-02-24T09:06:44.471Z,81.21
2023-02-24T09:07:43.994Z,80.80
2023-02-24T09:08:43.972Z,80.80
2023-02-24T09:09:43.959Z,82.25
2023-02-24T09:10:43.972Z,80.49
2023-02-24T09:11:43.998Z,80.90
2023-02-24T09:12:43.933Z,79.46
2023-02-24T09:13:43.922Z,80.29
2023-02-24T09:14:43.913Z,80.49
2023-02-24T09:15:43.908Z,80.08
2023-02-24T09:16:43.990Z,80.80
2023-02-24T09:17:43.883Z,80.18
2023-02-24T09:18:43.872Z,80.49
2023-02-24T09:19:43.850Z,79.77
2023-02-24T09:20:43.857Z,79.42
2023-02-24T09:21:43.852Z,80.56
2023-02-24T09:22:43.835Z,79.11
2023-02-24T09:23:43.812Z,79.32
2023-02-24T09:24:43.806Z,79.63
2023-02-24T09:25:43.806Z,79.11
2023-02-24T09:26:43.795Z,79.63
2023-02-24T09:27:43.775Z,78.08
2023-02-24T09:28:43.814Z,78.22
2023-02-24T09:29:43.751Z,79.11
2023-02-24T09:30:43.768Z,78.70
2023-02-24T09:31:43.972Z,78.49
2023-02-24T09:32:43.809Z,78.70
2023-02-24T09:33:43.718Z,77.98
2023-02-24T09:34:43.701Z,78.08
2023-02-24T09:35:43.698Z,78.97
2023-02-24T09:36:43.670Z,77.77
2023-02-24T09:37:43.667Z,77.56
2023-02-24T09:38:43.654Z,77.63
2023-02-24T09:39:43.648Z,77.22
2023-02-24T09:40:43.652Z,77.94
2023-02-24T09:41:43.650Z,77.73
2023-02-24T09:42:43.605Z,78.05
2023-02-24T09:43:43.592Z,78.42
2023-02-24T09:44:43.593Z,77.39
2023-02-24T09:45:43.646Z,78.05
2023-02-24T09:46:43.636Z,78.45
2023-02-24T09:47:43.565Z,78.73
2023-02-24T09:48:43.699Z,79.35
2023-02-24T09:49:43.534Z,77.53
2023-02-24T09:51:01.385Z,78.14
2023-02-24T09:51:44.516Z,77.63
2023-02-24T09:52:57.610Z,77.94
2023-02-24T09:54:53.821Z,78.87
2023-02-24T09:56:01.337Z,78.42
2023-02-24T09:56:53.784Z,77.91
2023-02-24T09:57:53.793Z,77.18
2023-02-24T09:58:53.769Z,76.87
2023-02-24T09:59:53.754Z,77.80
2023-02-24T10:00:53.898Z,78.28
2023-02-24T10:01:53.768Z,76.77
2023-02-24T10:02:53.726Z,77.08
2023-02-24T10:03:53.746Z,77.08
2023-02-24T10:04:54.439Z,76.87
2023-02-24T10:05:53.714Z,77.08
2023-02-24T10:06:53.699Z,77.49
2023-02-24T10:07:53.679Z,78.01
2023-02-24T10:08:53.670Z,77.08
2023-02-24T10:09:53.653Z,77.04
2023-02-24T10:10:53.634Z,77.18
2023-02-24T10:11:53.666Z,76.94
2023-02-24T10:12:53.619Z,77.18
2023-02-24T10:13:53.611Z,76.56
2023-02-24T10:15:00.061Z,77.94
2023-02-24T10:15:57.822Z,77.22
2023-02-24T10:16:53.636Z,76.29
2023-02-24T10:17:53.581Z,76.81
2023-02-24T10:18:53.559Z,76.18
2023-02-24T10:19:53.570Z,76.87
2023-02-24T10:20:53.602Z,77.39
2023-02-24T10:21:53.524Z,75.87
2023-02-24T10:22:53.533Z,76.39
2023-02-24T10:23:54.806Z,76.73
2023-02-24T10:24:53.486Z,77.11
2023-02-24T10:25:53.484Z,77.15
2023-02-24T10:27:00.729Z,77.42
2023-02-24T10:27:54.470Z,77.84
2023-02-24T10:28:53.467Z,78.18
2023-02-24T10:29:53.436Z,77.67
2023-02-24T10:30:53.577Z,78.39
2023-02-24T10:31:53.660Z,78.53
2023-02-24T10:32:53.525Z,79.05
2023-02-24T10:33:53.405Z,79.15
2023-02-24T10:34:53.405Z,79.15
2023-02-24T10:35:53.394Z,79.39
2023-02-24T10:36:53.358Z,80.53
2023-02-24T10:37:53.362Z,81.39
2023-02-24T10:38:53.336Z,82.53
2023-02-24T10:39:53.326Z,82.74
2023-02-24T10:40:53.342Z,82.84
2023-02-24T10:41:53.336Z,84.19
2023-02-24T10:42:53.293Z,84.43
2023-02-24T10:43:53.315Z,85.68
2023-02-24T10:45:01.741Z,87.12
2023-02-24T10:45:54.300Z,86.71
2023-02-24T10:46:53.293Z,87.74
2023-02-24T10:47:53.268Z,88.36
2023-02-24T10:48:53.249Z,89.34
2023-02-24T10:49:53.227Z,89.54
2023-02-24T10:50:56.204Z,90.58
2023-02-24T10:51:53.297Z,90.83
2023-02-24T10:52:53.215Z,91.35
2023-02-24T10:53:53.205Z,91.66
2023-02-24T10:54:53.222Z,92.18
2023-02-24T10:55:53.164Z,93.04
2023-02-24T10:56:53.150Z,93.15
2023-02-24T10:57:58.986Z,93.35
2023-02-24T10:58:54.133Z,94.56
2023-02-24T10:59:53.217Z,94.35
2023-02-24T11:00:53.111Z,94.14
2023-02-24T11:01:53.164Z,94.18
2023-02-24T11:02:53.151Z,93.98
2023-02-24T11:03:53.079Z,94.49
2023-02-24T11:04:53.061Z,94.91
2023-02-24T11:05:53.057Z,95.01
2023-02-24T11:06:53.043Z,95.01
2023-02-24T11:07:53.056Z,95.16
2023-02-24T11:08:53.026Z,95.26
2023-02-24T11:09:53.042Z,96.30
2023-02-24T11:10:53.229Z,96.09
2023-02-24T11:11:52.992Z,95.99
2023-02-24T11:13:00.875Z,95.99
2023-02-24T11:13:53.979Z,96.09
2023-02-24T11:14:52.977Z,96.92
2023-02-24T11:15:53.014Z,96.72
2023-02-24T11:16:52.934Z,96.92
2023-02-24T11:17:52.972Z,96.61
2023-02-24T11:18:52.906Z,97.13
2023-02-24T11:19:52.903Z,97.13
2023-02-24T11:20:52.905Z,97.03
2023-02-24T11:21:52.881Z,97.24
2023-02-24T11:22:52.868Z,97.34
2023-02-24T11:23:52.882Z,97.75
2023-02-24T11:24:52.852Z,97.59
2023-02-24T11:25:52.858Z,97.90
2023-02-24T11:26:52.835Z,97.96
2023-02-24T11:27:52.807Z,97.75
2023-02-24T11:28:52.797Z,98.48
2023-02-24T11:29:52.811Z,97.80
2023-02-24T11:30:53.028Z,98.38
2023-02-24T11:31:52.869Z,98.38
2023-02-24T11:32:52.819Z,98.48
2023-02-24T11:33:52.740Z,98.00
2023-02-24T11:34:52.738Z,98.00
2023-02-24T11:35:52.742Z,98.32
2023-02-24T11:36:52.718Z,98.32
2023-02-24T11:37:52.704Z,98.42
2023-02-24T11:38:52.690Z,98.83
2023-02-24T11:39:52.731Z,99.82
2023-02-24T11:40:52.667Z,98.90
2023-02-24T11:41:52.670Z,98.94
2023-02-24T11:42:52.645Z,99.10
2023-02-24T11:43:52.641Z,99.00
2023-02-24T11:44:52.634Z,99.00
2023-02-24T11:45:52.630Z,99.00
2023-02-24T11:46:52.610Z,98.90
2023-02-24T11:47:52.597Z,98.48
2023-02-24T11:48:52.595Z,98.48
2023-02-24T11:49:52.582Z,99.00
2023-02-24T11:50:52.576Z,98.79
2023-02-24T11:51:52.561Z,97.80
2023-02-24T11:52:52.538Z,98.42
2023-02-24T11:53:52.540Z,98.83
2023-02-24T11:54:52.525Z,99.62
2023-02-24T11:55:52.553Z,98.38
2023-02-24T11:56:52.502Z,98.94
2023-02-24T11:57:52.497Z,98.73
2023-02-24T11:58:52.476Z,98.69
2023-02-24T11:59:52.478Z,98.69
2023-02-24T12:00:52.461Z,99.62
2023-02-24T12:01:52.462Z,99.04
2023-02-24T12:02:52.462Z,99.21
2023-02-24T12:03:52.420Z,98.90
2023-02-24T12:04:52.414Z,99.10
2023-02-24T12:05:52.442Z,99.21
2023-02-24T12:06:52.404Z,99.00
2023-02-24T12:07:52.390Z,99.31
2023-02-24T12:08:52.369Z,99.21
2023-02-24T12:09:54.861Z,98.95
2023-02-24T12:10:52.349Z,99.41
2023-02-24T12:11:52.353Z,98.58
2023-02-24T12:12:52.345Z,99.21
2023-02-24T12:13:52.314Z,99.52
2023-02-24T12:14:52.314Z,99.52
2023-02-24T12:15:52.347Z,99.00
2023-02-24T12:16:52.290Z,98.58
2023-02-24T12:17:52.282Z,99.00
2023-02-24T12:18:52.289Z,98.85
2023-02-24T12:19:52.255Z,99.41
2023-02-24T12:20:52.250Z,99.99
2023-02-24T12:21:52.243Z,99.52
2023-02-24T12:22:52.223Z,99.10
2023-02-24T12:23:52.225Z,99.04
2023-02-24T12:24:52.222Z,99.25
2023-02-24T12:25:52.192Z,99.77
2023-02-24T12:26:52.181Z,99.56
2023-02-24T12:27:52.189Z,99.98
2023-02-24T12:28:52.156Z,99.99
2023-02-24T12:29:52.151Z,99.99
2023-02-24T12:30:52.201Z,99.99
2023-02-24T12:31:52.261Z,99.99
2023-02-24T12:32:52.281Z,99.99
2023-02-24T12:33:52.112Z,99.99
2023-02-24T12:34:52.101Z,99.99
2023-02-24T12:35:52.092Z,99.99
2023-02-24T12:36:52.070Z,99.99
2023-02-24T12:37:52.088Z,99.99
2023-02-24T12:38:52.049Z,99.99
2023-02-24T12:39:52.048Z,99.99
2023-02-24T12:40:52.031Z,99.99
2023-02-24T12:41:52.069Z,99.99
2023-02-24T12:42:52.014Z,99.99
2023-02-24T12:43:52.012Z,99.99
2023-02-24T12:44:51.987Z,99.99
2023-02-24T12:45:52.050Z,99.99
2023-02-24T12:46:51.957Z,99.99
2023-02-24T12:47:51.980Z,99.99
2023-02-24T12:48:51.948Z,99.99
2023-02-24T12:49:51.925Z,99.99
2023-02-24T12:50:51.928Z,99.99
2023-02-24T12:51:51.916Z,99.99
2023-02-24T12:52:51.903Z,99.99
2023-02-24T12:53:51.892Z,99.99